Metlakatla, Alaska
Current Conditions -  °F | °C
As of 6:16 PM on Saturday 25 Oct 2014 (Local Time) from PAMM Reporting Station
Clear Clear  
Wind Chill: 50°   Ceiling: Unl
Heat Index: 50°   Visibility: 10mi
Dew Point: 39°   Wind: 9mph
Humidity: 66%   Direction: 350°N
Pressure: 29.59"   Gusts: NA
Location:  55.11°N, 131.58°W
Report Text: PAMM 260316Z AUTO 35008KT 10SM CLR 10/04 A2959 RMK AO1
Loading
Personal Weather Stations






























Interactive Weather Map New forecast layout! Learn more

10-Day Weather Forecast

Advertisements
Track Severe Weather on mobile